Terminal Aerodrome Forecast
Issued by NWS

Home | Current Version | Previous Version | Text Only | Print | Product List | Glossary On
Versions: 1 2 3 4 5 6 7 8 9 10 11 12 13 14 15 16 17 18 19 20 21 22 23 24 25 26 27 28 29 30 31 32
000
FTAK31 PANC 232342
TAFAIL
TAF
PAIL 232342Z 2400/2424 09011KT P6SM -RA BKN040 OVC060
      TEMPO 2400/2403 09016G22KT
     FM240600 07006KT P6SM -RA OVC040
     FM241400 24004KT P6SM -RA FEW010 OVC020=

USA.gov is the U.S. government's official web portal to all federal, state and local government web resources and services.